createdAt,value
2018-09-19T00:00:59.384Z,80.82
2018-09-19T00:01:59.392Z,81.43
2018-09-19T00:02:59.403Z,81.97
2018-09-19T00:03:59.370Z,81.68
2018-09-19T00:04:59.442Z,81.97
2018-09-19T00:05:59.373Z,81.30
2018-09-19T00:06:59.399Z,81.10
2018-09-19T00:07:59.392Z,81.20
2018-09-19T00:08:59.412Z,81.87
2018-09-19T00:09:59.378Z,82.54
2018-09-19T00:10:59.403Z,82.84
2018-09-19T00:11:59.422Z,82.16
2018-09-19T00:12:59.419Z,80.82
2018-09-19T00:13:59.404Z,80.82
2018-09-19T00:14:59.471Z,80.91
2018-09-19T00:15:59.400Z,80.34
2018-09-19T00:16:59.423Z,79.96
2018-09-19T00:17:59.448Z,79.28
2018-09-19T00:18:59.427Z,78.80
2018-09-19T00:19:59.468Z,79.47
2018-09-19T00:20:59.428Z,78.61
2018-09-19T00:21:59.421Z,78.61
2018-09-19T00:22:59.458Z,79.19
2018-09-19T00:23:59.424Z,80.34
2018-09-19T00:24:59.436Z,80.05
2018-09-19T00:25:59.453Z,80.05
2018-09-19T00:26:59.450Z,80.34
2018-09-19T00:27:59.479Z,80.05
2018-09-19T00:28:59.455Z,80.24
2018-09-19T00:29:59.463Z,80.82
2018-09-19T00:30:59.491Z,80.73
2018-09-19T00:31:59.477Z,80.34
2018-09-19T00:32:59.446Z,80.15
2018-09-19T00:33:59.475Z,80.63
2018-09-19T00:34:59.468Z,79.67
2018-09-19T00:35:59.459Z,80.15
2018-09-19T00:36:59.455Z,79.86
2018-09-19T00:37:59.470Z,80.34
2018-09-19T00:38:59.476Z,81.10
2018-09-19T00:39:59.458Z,80.91
2018-09-19T00:40:59.486Z,80.63
2018-09-19T00:41:59.473Z,80.24
2018-09-19T00:42:59.490Z,81.05
2018-09-19T00:43:59.476Z,81.97
2018-09-19T00:44:59.472Z,82.07
2018-09-19T00:45:59.502Z,82.16
2018-09-19T00:46:59.502Z,83.03
2018-09-19T00:47:59.496Z,82.64
2018-09-19T00:48:59.492Z,82.07
2018-09-19T00:49:59.502Z,81.87
2018-09-19T00:50:59.524Z,81.78
2018-09-19T00:51:59.493Z,81.87
2018-09-19T00:52:59.501Z,81.78
2018-09-19T00:53:59.502Z,82.07
2018-09-19T00:54:59.499Z,82.16
2018-09-19T00:55:59.517Z,82.84
2018-09-19T00:56:59.518Z,82.07
2018-09-19T00:57:59.523Z,82.16
2018-09-19T00:58:59.547Z,82.07
2018-09-19T00:59:59.541Z,81.97
2018-09-19T01:00:59.534Z,81.87
2018-09-19T01:01:59.539Z,81.68
2018-09-19T01:02:59.548Z,82.07
2018-09-19T01:03:59.538Z,82.07
2018-09-19T01:04:59.538Z,81.30
2018-09-19T01:05:59.535Z,81.87
2018-09-19T01:06:59.532Z,81.87
2018-09-19T01:07:59.551Z,82.35
2018-09-19T01:08:59.545Z,82.16
2018-09-19T01:09:59.539Z,82.35
2018-09-19T01:10:59.558Z,82.64
2018-09-19T01:11:59.544Z,82.16
2018-09-19T01:12:59.544Z,82.64
2018-09-19T01:13:59.577Z,82.64
2018-09-19T01:14:59.559Z,82.26
2018-09-19T01:15:59.573Z,83.51
2018-09-19T01:16:59.574Z,83.70
2018-09-19T01:17:59.589Z,83.98
2018-09-19T01:18:59.568Z,84.75
2018-09-19T01:19:59.591Z,84.75
2018-09-19T01:20:59.575Z,85.33
2018-09-19T01:21:59.585Z,85.91
2018-09-19T01:22:59.588Z,86.05
2018-09-19T01:23:59.596Z,87.25
2018-09-19T01:24:59.597Z,87.35
2018-09-19T01:25:59.609Z,86.96
2018-09-19T01:26:59.601Z,87.10
2018-09-19T01:27:59.597Z,87.49
2018-09-19T01:28:59.590Z,86.58
2018-09-19T01:29:59.605Z,86.38
2018-09-19T01:30:59.593Z,86.29
2018-09-19T01:31:59.664Z,86.29
2018-09-19T01:32:59.702Z,86.10
2018-09-19T01:33:59.623Z,85.91
2018-09-19T01:34:59.622Z,86.14
2018-09-19T01:35:59.618Z,85.71
2018-09-19T01:36:59.633Z,85.81
2018-09-19T01:37:59.641Z,86.19
2018-09-19T01:38:59.636Z,86.10
2018-09-19T01:39:59.644Z,86.00
2018-09-19T01:40:59.626Z,85.52
2018-09-19T01:41:59.622Z,85.62
2018-09-19T01:42:59.632Z,84.75
2018-09-19T01:43:59.636Z,85.42
2018-09-19T01:44:59.636Z,84.95
2018-09-19T01:45:59.641Z,84.75
2018-09-19T01:46:59.626Z,84.27
2018-09-19T01:47:59.637Z,84.37
2018-09-19T01:48:59.659Z,83.98
2018-09-19T01:49:59.676Z,84.27
2018-09-19T01:50:59.652Z,83.80
2018-09-19T01:51:59.706Z,84.27
2018-09-19T01:52:59.664Z,84.27
2018-09-19T01:53:59.661Z,83.89
2018-09-19T01:54:59.699Z,83.98
2018-09-19T01:55:59.669Z,84.08
2018-09-19T01:56:59.669Z,83.80
2018-09-19T01:57:59.662Z,83.80
2018-09-19T01:58:59.709Z,83.51
2018-09-19T01:59:59.693Z,82.93
2018-09-19T02:00:59.674Z,82.64
2018-09-19T02:01:59.686Z,82.54
2018-09-19T02:02:59.695Z,82.16
2018-09-19T02:03:59.693Z,82.16
2018-09-19T02:04:59.695Z,81.87
2018-09-19T02:05:59.687Z,81.78
2018-09-19T02:06:59.690Z,81.97
2018-09-19T02:07:59.682Z,81.68
2018-09-19T02:08:59.715Z,81.97
2018-09-19T02:09:59.700Z,82.35
2018-09-19T02:10:59.708Z,82.35
2018-09-19T02:11:59.702Z,82.64
2018-09-19T02:12:59.709Z,82.16
2018-09-19T02:13:59.710Z,81.87
2018-09-19T02:14:59.715Z,82.07
2018-09-19T02:15:59.710Z,81.68
2018-09-19T02:16:59.719Z,81.49
2018-09-19T02:17:59.781Z,81.78
2018-09-19T02:18:59.732Z,80.87
2018-09-19T02:19:59.755Z,80.58
2018-09-19T02:20:59.736Z,80.49
2018-09-19T02:21:59.712Z,81.07
2018-09-19T02:22:59.781Z,80.40
2018-09-19T02:23:59.733Z,80.87
2018-09-19T02:24:59.738Z,80.30
2018-09-19T02:25:59.821Z,79.72
2018-09-19T02:26:59.778Z,80.01
2018-09-19T02:27:59.756Z,80.11
2018-09-19T02:28:59.754Z,79.53
2018-09-19T02:29:59.754Z,78.00
2018-09-19T02:30:59.752Z,77.61
2018-09-19T02:31:59.756Z,77.61
2018-09-19T02:32:59.772Z,76.07
2018-09-19T02:33:59.757Z,75.31
2018-09-19T02:34:59.770Z,74.93
2018-09-19T02:35:59.776Z,73.58
2018-09-19T02:36:59.784Z,73.10
2018-09-19T02:37:59.776Z,73.10
2018-09-19T02:38:59.786Z,72.81
2018-09-19T02:39:59.788Z,73.30
2018-09-19T02:40:59.772Z,72.81
2018-09-19T02:41:59.785Z,72.14
2018-09-19T02:42:59.816Z,72.91
2018-09-19T02:43:59.784Z,72.81
2018-09-19T02:44:59.794Z,72.14
2018-09-19T02:45:59.794Z,72.11
2018-09-19T02:46:59.805Z,72.20
2018-09-19T02:47:59.880Z,71.63
2018-09-19T02:48:59.813Z,71.63
2018-09-19T02:49:59.794Z,71.34
2018-09-19T02:50:59.801Z,70.29
2018-09-19T02:51:59.847Z,70.09
2018-09-19T02:52:59.799Z,69.62
2018-09-19T02:53:59.887Z,69.90
2018-09-19T02:54:59.826Z,70.29
2018-09-19T02:55:59.806Z,69.71
2018-09-19T02:56:59.831Z,69.62
2018-09-19T02:57:59.824Z,69.33
2018-09-19T02:58:59.821Z,69.13
2018-09-19T02:59:59.829Z,68.18
2018-09-19T03:00:59.831Z,67.79
2018-09-19T03:01:59.830Z,67.32
2018-09-19T03:02:59.915Z,66.55
2018-09-19T03:03:59.857Z,66.16
2018-09-19T03:04:59.840Z,64.63
2018-09-19T03:05:59.877Z,64.63
2018-09-19T03:06:59.847Z,63.86
2018-09-19T03:07:59.885Z,63.57
2018-09-19T03:08:59.851Z,61.08
2018-09-19T03:09:59.849Z,59.16
2018-09-19T03:10:59.879Z,58.01
2018-09-19T03:11:59.873Z,56.96
2018-09-19T03:12:59.904Z,56.86
2018-09-19T03:13:59.860Z,55.23
2018-09-19T03:14:59.879Z,53.12
2018-09-19T03:15:59.879Z,52.55
2018-09-19T03:16:59.891Z,52.45
2018-09-19T03:17:59.866Z,52.16
2018-09-19T03:18:59.874Z,51.68
2018-09-19T03:19:59.923Z,52.07
2018-09-19T03:20:59.867Z,50.73
2018-09-19T03:21:59.877Z,49.96
2018-09-19T03:22:59.874Z,50.70
2018-09-19T03:23:59.900Z,52.04
2018-09-19T03:24:59.896Z,53.89
2018-09-19T03:25:59.888Z,55.04
2018-09-19T03:26:59.901Z,56.96
2018-09-19T03:27:59.895Z,58.69
2018-09-19T03:28:59.901Z,59.45
2018-09-19T03:29:59.899Z,59.64
2018-09-19T03:30:59.902Z,60.22
2018-09-19T03:31:59.894Z,61.37
2018-09-19T03:32:59.905Z,62.52
2018-09-19T03:33:59.898Z,64.43
2018-09-19T03:34:59.907Z,65.20
2018-09-19T03:35:59.904Z,65.68
2018-09-19T03:36:59.919Z,65.78
2018-09-19T03:37:59.917Z,66.06
2018-09-19T03:38:59.909Z,67.02
2018-09-19T03:39:59.941Z,67.69
2018-09-19T03:40:59.917Z,68.18
2018-09-19T03:41:59.926Z,67.79
2018-09-19T03:42:59.938Z,68.08
2018-09-19T03:43:59.941Z,68.08
2018-09-19T03:44:59.941Z,68.85
2018-09-19T03:45:59.927Z,69.13
2018-09-19T03:46:59.974Z,69.52
2018-09-19T03:47:59.926Z,68.08
2018-09-19T03:48:59.932Z,67.41
2018-09-19T03:49:59.971Z,67.32
2018-09-19T03:50:59.962Z,66.93
2018-09-19T03:51:59.945Z,65.88
2018-09-19T03:52:59.960Z,65.78
2018-09-19T03:53:59.949Z,66.93
2018-09-19T03:54:59.991Z,65.97
2018-09-19T03:55:59.991Z,66.16
2018-09-19T03:56:59.959Z,65.68
2018-09-19T03:58:00.021Z,65.88
2018-09-19T03:59:00.007Z,66.26
2018-09-19T03:59:59.966Z,65.97
2018-09-19T04:00:59.970Z,65.78
2018-09-19T04:01:59.964Z,65.30
2018-09-19T04:02:59.998Z,65.49
2018-09-19T04:03:59.980Z,65.78
2018-09-19T04:04:59.979Z,65.30
2018-09-19T04:05:59.985Z,65.39
2018-09-19T04:06:59.998Z,64.82
2018-09-19T04:08:00.021Z,65.20
2018-09-19T04:08:59.987Z,64.05
2018-09-19T04:09:59.989Z,64.05
2018-09-19T04:11:00.020Z,62.62
2018-09-19T04:11:59.986Z,61.37
2018-09-19T04:12:59.991Z,58.17
2018-09-19T04:13:59.989Z,57.41
2018-09-19T04:14:59.995Z,56.83
2018-09-19T04:16:00.009Z,55.87
2018-09-19T04:17:00.034Z,55.58
2018-09-19T04:18:00.001Z,54.72
2018-09-19T04:19:00.026Z,53.09
2018-09-19T04:20:00.007Z,52.23
2018-09-19T04:21:00.010Z,52.33
2018-09-19T04:22:00.015Z,50.79
2018-09-19T04:23:00.017Z,51.08
2018-09-19T04:24:00.018Z,50.03
2018-09-19T04:25:00.047Z,50.70
2018-09-19T04:26:00.025Z,49.16
2018-09-19T04:27:00.031Z,48.97
2018-09-19T04:28:00.028Z,47.34
2018-09-19T04:29:00.027Z,46.77
2018-09-19T04:30:00.074Z,46.86
2018-09-19T04:31:00.052Z,45.72
2018-09-19T04:32:00.051Z,46.00
2018-09-19T04:33:00.044Z,45.43
2018-09-19T04:34:00.041Z,45.43
2018-09-19T04:35:00.056Z,45.72
2018-09-19T04:36:00.047Z,46.00
2018-09-19T04:37:00.097Z,45.62
2018-09-19T04:38:00.066Z,44.37
2018-09-19T04:39:00.119Z,43.90
2018-09-19T04:40:00.091Z,41.97
2018-09-19T04:41:00.057Z,40.54
2018-09-19T04:42:00.066Z,40.44
2018-09-19T04:43:00.068Z,39.87
2018-09-19T04:44:00.075Z,39.39
2018-09-19T04:45:00.134Z,38.24
2018-09-19T04:46:00.065Z,37.95
2018-09-19T04:47:00.069Z,36.99
2018-09-19T04:48:00.085Z,40.54
2018-09-19T04:49:00.091Z,43.13
2018-09-19T04:50:00.097Z,45.72
2018-09-19T04:51:00.100Z,48.88
2018-09-19T04:52:00.104Z,49.84
2018-09-19T04:53:00.105Z,50.89
2018-09-19T04:54:00.106Z,51.65
2018-09-19T04:55:00.102Z,52.62
2018-09-19T04:56:00.204Z,53.67
2018-09-19T04:57:00.151Z,53.58
2018-09-19T04:58:00.144Z,54.34
2018-09-19T04:59:00.105Z,53.58
2018-09-19T05:00:00.095Z,53.77
2018-09-19T05:01:00.110Z,53.19
2018-09-19T05:02:00.120Z,53.86
2018-09-19T05:03:00.116Z,53.67
2018-09-19T05:04:00.103Z,52.91
2018-09-19T05:05:00.163Z,52.81
2018-09-19T05:06:00.128Z,53.48
2018-09-19T05:07:00.116Z,53.58
2018-09-19T05:08:00.127Z,53.58
2018-09-19T05:09:00.122Z,54.15
2018-09-19T05:10:00.139Z,53.96
2018-09-19T05:11:00.123Z,53.67
2018-09-19T05:12:00.135Z,53.77
2018-09-19T05:13:00.149Z,53.67
2018-09-19T05:14:00.129Z,53.67
2018-09-19T05:15:00.157Z,53.96
2018-09-19T05:16:00.140Z,54.34
2018-09-19T05:17:00.167Z,54.63
2018-09-19T05:18:00.145Z,54.34
2018-09-19T05:19:00.157Z,54.53
2018-09-19T05:20:00.161Z,53.96
2018-09-19T05:21:00.158Z,53.77
2018-09-19T05:22:00.148Z,53.19
2018-09-19T05:23:00.161Z,53.67
2018-09-19T05:24:00.163Z,52.81
2018-09-19T05:25:00.155Z,52.62
2018-09-19T05:26:00.170Z,51.65
2018-09-19T05:27:00.167Z,51.56
2018-09-19T05:28:00.160Z,50.89
2018-09-19T05:29:00.169Z,50.32
2018-09-19T05:30:00.190Z,49.07
2018-09-19T05:31:00.191Z,47.82
2018-09-19T05:32:00.202Z,46.29
2018-09-19T05:33:00.191Z,46.19
2018-09-19T05:34:00.187Z,46.58
2018-09-19T05:35:00.212Z,46.39
2018-09-19T05:36:00.180Z,46.96
2018-09-19T05:37:00.212Z,47.44
2018-09-19T05:38:00.189Z,47.34
2018-09-19T05:39:00.195Z,48.97
2018-09-19T05:40:00.200Z,49.55
2018-09-19T05:41:00.237Z,49.65
2018-09-19T05:42:00.199Z,47.82
2018-09-19T05:43:00.209Z,50.41
2018-09-19T05:44:00.205Z,50.22
2018-09-19T05:45:00.212Z,50.22
2018-09-19T05:46:00.214Z,50.41
2018-09-19T05:47:00.217Z,50.99
2018-09-19T05:48:00.219Z,51.56
2018-09-19T05:49:00.219Z,52.04
2018-09-19T05:50:00.233Z,53.09
2018-09-19T05:51:00.260Z,54.24
2018-09-19T05:52:00.554Z,55.23
2018-09-19T05:53:00.222Z,57.34
2018-09-19T05:54:00.228Z,58.59
2018-09-19T05:55:00.254Z,59.55
2018-09-19T05:56:00.265Z,59.83
2018-09-19T05:57:00.250Z,60.41
2018-09-19T05:58:00.240Z,61.37
2018-09-19T05:59:00.280Z,61.46
2018-09-19T06:00:00.280Z,61.75
2018-09-19T06:01:00.267Z,63.29
2018-09-19T06:02:00.258Z,63.00
2018-09-19T06:03:00.243Z,63.96
2018-09-19T06:04:00.264Z,64.85
2018-09-19T06:05:00.308Z,65.81
2018-09-19T06:06:00.281Z,66.19
2018-09-19T06:07:00.255Z,66.96
2018-09-19T06:08:00.259Z,68.30
2018-09-19T06:09:00.277Z,70.03
2018-09-19T06:10:00.265Z,70.51
2018-09-19T06:11:00.250Z,70.80
2018-09-19T06:12:00.274Z,72.53
2018-09-19T06:13:00.339Z,74.48
2018-09-19T06:14:00.304Z,75.06
2018-09-19T06:15:00.334Z,75.35
2018-09-19T06:16:00.285Z,76.40
2018-09-19T06:17:00.309Z,77.36
2018-09-19T06:18:00.305Z,78.23
2018-09-19T06:19:00.338Z,79.86
2018-09-19T06:20:00.319Z,80.43
2018-09-19T06:21:00.291Z,79.76
2018-09-19T06:22:00.367Z,80.63
2018-09-19T06:23:00.314Z,81.01
2018-09-19T06:24:00.419Z,82.74
2018-09-19T06:25:00.430Z,82.16
2018-09-19T06:26:00.316Z,82.68
2018-09-19T06:27:00.369Z,83.84
2018-09-19T06:28:00.342Z,84.22
2018-09-19T06:29:00.349Z,85.37
2018-09-19T06:30:00.392Z,87.29
2018-09-19T06:31:00.408Z,90.03
2018-09-19T06:32:00.383Z,94.73
2018-09-19T06:33:00.446Z,99.99
2018-09-19T06:34:00.359Z,99.99
2018-09-19T06:35:00.393Z,99.99
2018-09-19T06:36:00.384Z,99.99
2018-09-19T06:37:00.549Z,99.99
2018-09-19T06:38:00.368Z,99.99
2018-09-19T06:39:00.371Z,99.99
2018-09-19T06:40:00.764Z,99.99
2018-09-19T06:41:00.484Z,99.99
2018-09-19T06:42:00.381Z,99.99
2018-09-19T06:43:00.433Z,99.99
2018-09-19T06:44:00.440Z,99.99
2018-09-19T06:45:00.408Z,99.99
2018-09-19T06:46:00.371Z,99.99
2018-09-19T06:47:00.423Z,99.99
2018-09-19T06:48:00.376Z,99.99
2018-09-19T06:49:00.424Z,99.99
2018-09-19T06:50:01.244Z,99.99
2018-09-19T06:51:00.354Z,99.99
2018-09-19T06:52:00.414Z,99.99
2018-09-19T06:53:00.462Z,99.99
2018-09-19T06:54:01.220Z,99.99
2018-09-19T06:55:03.827Z,99.99
2018-09-19T06:56:01.407Z,99.99
2018-09-19T06:57:00.828Z,98.88
2018-09-19T06:58:00.399Z,96.50
2018-09-19T06:59:01.245Z,96.26
2018-09-19T07:00:01.273Z,95.15
2018-09-19T07:01:00.445Z,91.71
2018-09-19T07:02:00.427Z,90.69
2018-09-19T07:04:00.467Z,88.51
2018-09-19T07:05:00.430Z,88.85
2018-09-19T07:06:00.439Z,89.33
2018-09-19T07:07:00.491Z,86.91
2018-09-19T07:08:01.219Z,86.57
2018-09-19T07:09:00.503Z,86.12
2018-09-19T07:10:00.513Z,85.15
2018-09-19T07:11:01.303Z,83.78
2018-09-19T07:12:00.480Z,83.02
2018-09-19T07:13:00.462Z,86.82
2018-09-19T07:14:00.448Z,84.91
2018-09-19T07:15:00.462Z,82.32
2018-09-19T07:16:00.475Z,81.10
2018-09-19T07:17:00.451Z,80.42
2018-09-19T07:18:00.478Z,80.17
2018-09-19T07:19:00.556Z,78.20
2018-09-19T07:20:00.519Z,78.42
2018-09-19T07:21:00.573Z,80.38
2018-09-19T07:22:00.531Z,80.87
2018-09-19T07:23:00.540Z,79.74
2018-09-19T07:24:00.527Z,79.45
2018-09-19T07:25:00.608Z,83.15
2018-09-19T07:26:00.563Z,81.59
2018-09-19T07:27:00.548Z,80.23
2018-09-19T07:28:00.577Z,79.97
2018-09-19T07:29:00.540Z,77.68
2018-09-19T07:30:00.548Z,75.91
2018-09-19T07:31:00.627Z,73.18
2018-09-19T07:32:00.538Z,75.15
2018-09-19T07:33:00.628Z,78.64
2018-09-19T07:34:00.593Z,78.81
2018-09-19T07:35:00.630Z,76.51
2018-09-19T07:36:01.980Z,79.02
2018-09-19T07:37:00.648Z,78.44
2018-09-19T07:38:00.583Z,77.37
2018-09-19T07:39:00.781Z,79.41
2018-09-19T07:40:00.654Z,77.74
2018-09-19T07:41:00.661Z,76.61
2018-09-19T07:42:00.662Z,76.28
2018-09-19T07:43:00.827Z,77.22
2018-09-19T07:44:00.637Z,77.31
2018-09-19T07:45:00.882Z,76.67
2018-09-19T07:46:00.676Z,78.34
2018-09-19T07:47:00.695Z,77.15
2018-09-19T07:48:00.665Z,76.38
2018-09-19T07:49:00.698Z,76.64
2018-09-19T07:50:00.676Z,77.61
2018-09-19T07:51:00.729Z,77.15
2018-09-19T07:52:00.711Z,77.55
2018-09-19T07:53:03.721Z,78.25
2018-09-19T07:54:00.714Z,77.74
2018-09-19T07:55:00.777Z,75.45
2018-09-19T07:56:00.733Z,74.86
2018-09-19T07:57:00.798Z,75.37
2018-09-19T07:58:00.835Z,76.09
2018-09-19T07:59:04.612Z,74.08
2018-09-19T08:00:00.881Z,74.45
2018-09-19T08:01:00.905Z,72.56
2018-09-19T08:02:01.030Z,74.22
2018-09-19T08:03:01.077Z,74.38
2018-09-19T08:04:00.870Z,72.80
2018-09-19T08:05:00.877Z,71.95
2018-09-19T08:06:01.778Z,72.05
2018-09-19T08:07:01.775Z,71.66
2018-09-19T08:08:00.880Z,72.02
2018-09-19T08:09:00.937Z,70.76
2018-09-19T08:10:00.993Z,70.31
2018-09-19T08:11:00.964Z,68.94
2018-09-19T08:12:00.903Z,70.17
2018-09-19T08:13:00.961Z,71.14
2018-09-19T08:14:01.261Z,71.08
2018-09-19T08:15:00.939Z,70.72
2018-09-19T08:16:00.984Z,70.04
2018-09-19T08:17:01.249Z,70.43
2018-09-19T08:19:01.082Z,69.78
2018-09-19T08:20:00.997Z,68.71
2018-09-19T08:21:01.723Z,69.84
2018-09-19T08:22:01.022Z,69.94
2018-09-19T08:23:01.045Z,68.90
2018-09-19T08:24:01.018Z,69.46
2018-09-19T08:25:01.045Z,68.87
2018-09-19T08:26:01.039Z,68.80
2018-09-19T08:27:01.067Z,67.32
2018-09-19T08:28:01.075Z,67.96
2018-09-19T08:29:01.067Z,68.93
2018-09-19T08:30:01.075Z,68.16
2018-09-19T08:31:01.123Z,66.11
2018-09-19T08:32:01.088Z,69.42
2018-09-19T08:33:01.118Z,68.16
2018-09-19T08:34:01.134Z,68.09
2018-09-19T08:35:01.135Z,68.80
2018-09-19T08:36:01.177Z,67.67
2018-09-19T08:37:01.336Z,67.83
2018-09-19T08:38:01.184Z,67.67
2018-09-19T08:39:01.173Z,67.47
2018-09-19T08:40:01.218Z,67.54
2018-09-19T08:41:01.198Z,67.08
2018-09-19T08:42:01.248Z,67.02
2018-09-19T08:43:01.226Z,67.83
2018-09-19T08:44:01.314Z,69.10
2018-09-19T08:45:01.254Z,67.80
2018-09-19T08:46:01.365Z,68.55
2018-09-19T08:47:01.299Z,67.51
2018-09-19T08:48:01.330Z,67.05
2018-09-19T08:49:01.323Z,67.15
2018-09-19T08:50:01.324Z,65.43
2018-09-19T08:51:01.358Z,67.71
2018-09-19T08:52:01.455Z,66.47
2018-09-19T08:53:01.397Z,65.72
2018-09-19T08:54:01.355Z,66.05
2018-09-19T08:55:01.371Z,65.00
2018-09-19T08:56:01.382Z,65.72
2018-09-19T08:57:01.490Z,66.17
2018-09-19T08:58:01.430Z,67.96
2018-09-19T08:59:01.412Z,67.67
2018-09-19T09:00:01.464Z,66.63
2018-09-19T09:01:01.462Z,68.00
2018-09-19T09:02:01.506Z,66.24
2018-09-19T09:03:01.492Z,67.05
2018-09-19T09:04:01.491Z,68.13
2018-09-19T09:05:01.510Z,67.93
2018-09-19T09:06:01.555Z,65.78
2018-09-19T09:07:01.565Z,65.46
2018-09-19T09:08:01.564Z,65.75
2018-09-19T09:09:01.588Z,65.56
2018-09-19T09:10:01.603Z,66.17
2018-09-19T09:11:01.903Z,65.56
2018-09-19T09:12:01.692Z,65.13
2018-09-19T09:13:01.834Z,65.78
2018-09-19T09:14:01.655Z,65.75
2018-09-19T09:15:01.686Z,67.25
2018-09-19T09:16:01.656Z,66.93
2018-09-19T09:17:01.727Z,65.72
2018-09-19T09:18:01.715Z,65.59
2018-09-19T09:19:01.725Z,67.02
2018-09-19T09:20:01.878Z,66.60
2018-09-19T09:21:01.730Z,65.69
2018-09-19T09:22:01.774Z,67.22
2018-09-19T09:23:01.764Z,69.01
2018-09-19T09:24:01.756Z,69.24
2018-09-19T09:25:01.769Z,67.80
2018-09-19T09:26:02.153Z,66.44
2018-09-19T09:27:01.870Z,65.81
2018-09-19T09:28:02.086Z,64.94
2018-09-19T09:29:01.874Z,64.61
2018-09-19T09:30:01.845Z,66.63
2018-09-19T09:31:01.931Z,67.51
2018-09-19T09:32:01.928Z,66.86
2018-09-19T09:33:01.896Z,66.50
2018-09-19T09:34:01.931Z,66.47
2018-09-19T09:35:02.073Z,67.29
2018-09-19T09:36:01.965Z,66.60
2018-09-19T09:37:02.001Z,66.50
2018-09-19T09:38:02.088Z,65.59
2018-09-19T09:39:03.336Z,66.69
2018-09-19T09:40:02.068Z,67.54
2018-09-19T09:41:02.122Z,67.64
2018-09-19T09:42:02.920Z,67.51
2018-09-19T09:43:02.924Z,67.32
2018-09-19T09:44:02.128Z,68.00
2018-09-19T09:45:02.117Z,70.21
2018-09-19T09:46:02.176Z,69.95
2018-09-19T09:47:02.158Z,72.22
2018-09-19T09:48:02.164Z,74.93
2018-09-19T09:49:02.192Z,76.40
2018-09-19T09:50:02.148Z,76.88
2018-09-19T09:51:02.184Z,77.62
2018-09-19T09:52:02.221Z,77.53
2018-09-19T09:53:02.501Z,76.37
2018-09-19T09:54:02.301Z,73.72
2018-09-19T09:55:02.225Z,72.42
2018-09-19T09:56:02.303Z,70.02
2018-09-19T09:57:02.412Z,70.05
2018-09-19T09:58:02.315Z,68.68
2018-09-19T09:59:02.290Z,67.09
2018-09-19T10:00:02.318Z,66.99
2018-09-19T10:01:02.359Z,67.80
2018-09-19T10:02:02.400Z,68.36
2018-09-19T10:03:02.357Z,65.75
2018-09-19T10:04:02.357Z,67.29
2018-09-19T10:05:02.433Z,67.38
2018-09-19T10:06:02.400Z,67.15
2018-09-19T10:07:02.391Z,67.05
2018-09-19T10:08:02.453Z,66.86
2018-09-19T10:09:02.474Z,67.32
2018-09-19T10:10:02.431Z,66.24
2018-09-19T10:11:02.434Z,66.63
2018-09-19T10:12:02.473Z,68.29
2018-09-19T10:13:02.476Z,70.37
2018-09-19T10:14:02.527Z,70.37
2018-09-19T10:15:02.511Z,69.01
2018-09-19T10:16:02.550Z,67.09
2018-09-19T10:17:04.112Z,67.44
2018-09-19T10:18:02.571Z,69.14
2018-09-19T10:19:02.580Z,69.01
2018-09-19T10:20:02.589Z,66.73
2018-09-19T10:21:02.643Z,66.93
2018-09-19T10:22:02.607Z,65.78
2018-09-19T10:23:02.623Z,66.08
2018-09-19T10:24:02.628Z,65.62
2018-09-19T10:25:02.670Z,66.86
2018-09-19T10:26:02.668Z,67.19
2018-09-19T10:27:02.679Z,66.14
2018-09-19T10:28:02.794Z,66.86
2018-09-19T10:30:02.776Z,67.19
2018-09-19T10:31:02.764Z,65.95
2018-09-19T10:32:02.819Z,65.45
2018-09-19T10:33:02.791Z,67.19
2018-09-19T10:34:02.811Z,65.59
2018-09-19T10:35:02.825Z,66.60
2018-09-19T10:36:02.813Z,67.25
2018-09-19T10:37:02.846Z,66.73
2018-09-19T10:38:02.880Z,67.25
2018-09-19T10:39:02.932Z,67.15
2018-09-19T10:40:02.917Z,66.80
2018-09-19T10:41:02.934Z,65.81
2018-09-19T10:42:02.948Z,66.66
2018-09-19T10:43:02.958Z,68.32
2018-09-19T10:44:02.986Z,68.95
2018-09-19T10:45:02.956Z,67.29
2018-09-19T10:46:03.037Z,68.42
2018-09-19T10:47:03.073Z,71.28
2018-09-19T10:48:03.043Z,71.34
2018-09-19T10:49:03.079Z,72.06
2018-09-19T10:50:03.081Z,71.15
2018-09-19T10:51:03.198Z,68.65
2018-09-19T10:52:03.112Z,70.08
2018-09-19T10:53:03.113Z,70.50
2018-09-19T10:54:03.153Z,72.41
2018-09-19T10:55:03.143Z,73.19
2018-09-19T10:56:03.215Z,72.19
2018-09-19T10:57:03.236Z,71.57
2018-09-19T10:58:03.221Z,72.51
2018-09-19T10:59:03.235Z,75.07
2018-09-19T11:00:03.244Z,76.34
2018-09-19T11:01:03.246Z,75.43
2018-09-19T11:02:03.282Z,72.23
2018-09-19T11:03:03.295Z,69.99
2018-09-19T11:04:03.242Z,70.08
2018-09-19T11:05:06.219Z,71.67
2018-09-19T11:06:03.305Z,71.70
2018-09-19T11:07:03.308Z,72.00
2018-09-19T11:08:03.425Z,72.19
2018-09-19T11:09:03.388Z,73.45
2018-09-19T11:10:03.450Z,75.16
2018-09-19T11:11:03.523Z,75.91
2018-09-19T11:12:04.021Z,75.95
2018-09-19T11:13:03.410Z,76.43
2018-09-19T11:14:03.390Z,74.40
2018-09-19T11:15:03.511Z,74.13
2018-09-19T11:16:03.419Z,75.65
2018-09-19T11:17:03.480Z,74.62
2018-09-19T11:18:03.481Z,72.84
2018-09-19T11:19:03.626Z,72.55
2018-09-19T11:20:03.492Z,72.19
2018-09-19T11:21:03.524Z,71.00
2018-09-19T11:22:03.507Z,71.06
2018-09-19T11:23:03.491Z,71.09
2018-09-19T11:24:03.640Z,70.37
2018-09-19T11:25:03.623Z,71.80
2018-09-19T11:26:03.548Z,73.49
2018-09-19T11:27:03.619Z,74.72
2018-09-19T11:28:03.666Z,75.30
2018-09-19T11:29:03.650Z,75.75
2018-09-19T11:30:03.785Z,77.31
2018-09-19T11:31:03.667Z,77.21
2018-09-19T11:32:03.636Z,77.66
2018-09-19T11:33:03.679Z,77.95
2018-09-19T11:34:03.645Z,78.15
2018-09-19T11:35:03.967Z,78.05
2018-09-19T11:36:03.712Z,78.59
2018-09-19T11:37:03.788Z,78.79
2018-09-19T11:38:03.684Z,79.18
2018-09-19T11:39:03.765Z,78.92
2018-09-19T11:40:03.771Z,78.38
2018-09-19T11:41:03.809Z,78.83
2018-09-19T11:42:03.879Z,79.32
2018-09-19T11:43:03.791Z,79.18
2018-09-19T11:44:03.734Z,79.57
2018-09-19T11:45:04.310Z,79.76
2018-09-19T11:46:03.819Z,79.18
2018-09-19T11:47:03.752Z,79.72
2018-09-19T11:48:03.810Z,80.79
2018-09-19T11:49:03.845Z,81.18
2018-09-19T11:50:03.860Z,81.34
2018-09-19T11:51:03.782Z,82.40
2018-09-19T11:52:03.950Z,82.89
2018-09-19T11:53:03.817Z,81.92
2018-09-19T11:54:03.893Z,80.89
2018-09-19T11:55:03.876Z,81.18
2018-09-19T11:56:03.963Z,81.96
2018-09-19T11:57:04.020Z,83.03
2018-09-19T11:58:03.931Z,82.06
2018-09-19T11:59:03.888Z,82.74
2018-09-19T12:00:04.617Z,82.15
2018-09-19T12:01:03.859Z,80.25
2018-09-19T12:02:04.009Z,79.18
2018-09-19T12:03:03.966Z,78.63
2018-09-19T12:04:04.126Z,79.02
2018-09-19T12:05:03.956Z,78.77
2018-09-19T12:06:04.056Z,78.58
2018-09-19T12:07:03.983Z,78.38
2018-09-19T12:08:04.007Z,78.28
2018-09-19T12:09:04.013Z,79.35
2018-09-19T12:10:04.094Z,78.05
2018-09-19T12:11:03.990Z,78.77
2018-09-19T12:12:04.096Z,78.58
2018-09-19T12:13:04.075Z,78.58
2018-09-19T12:14:04.032Z,79.61
2018-09-19T12:15:04.053Z,78.92
2018-09-19T12:16:04.057Z,79.38
2018-09-19T12:17:04.042Z,80.15
2018-09-19T12:18:04.069Z,80.05
2018-09-19T12:19:04.054Z,79.02
2018-09-19T12:20:04.399Z,79.35
2018-09-19T12:21:04.343Z,80.33
2018-09-19T12:22:04.409Z,79.25
2018-09-19T12:24:37.128Z,78.67
2018-09-19T12:25:36.406Z,77.70
2018-09-19T12:26:40.545Z,78.38
2018-09-19T12:27:37.302Z,78.38
2018-09-19T12:28:39.005Z,78.19
2018-09-19T12:32:08.637Z,79.66
2018-09-19T12:33:08.880Z,81.02
2018-09-19T12:34:08.763Z,80.74
2018-09-19T12:35:10.014Z,82.39
2018-09-19T12:36:08.748Z,81.71
2018-09-19T12:37:11.959Z,80.48
2018-09-19T12:38:11.158Z,80.17
2018-09-19T12:39:09.038Z,79.10
2018-09-19T12:41:40.664Z,79.84
2018-09-19T12:42:40.540Z,80.33
2018-09-19T12:44:34.213Z,81.07
2018-09-19T12:45:36.675Z,80.23
2018-09-19T12:46:34.389Z,81.16
2018-09-19T12:47:35.892Z,81.56
2018-09-19T12:48:34.878Z,81.56
2018-09-19T12:49:34.710Z,80.68
2018-09-19T12:50:34.392Z,81.46
2018-09-19T12:51:34.790Z,81.46
2018-09-19T12:52:34.262Z,81.59
2018-09-19T12:53:38.105Z,80.23
2018-09-19T12:54:35.264Z,80.09
2018-09-19T12:55:35.533Z,80.48
2018-09-19T12:56:34.396Z,80.38
2018-09-19T12:57:35.410Z,80.09
2018-09-19T12:58:34.403Z,81.65
2018-09-19T12:59:35.460Z,81.75
2018-09-19T13:00:34.886Z,81.61
2018-09-19T13:02:34.372Z,80.97
2018-09-19T13:03:34.338Z,80.09